Time;durP1;ratioP1;P1;durP2;ratioP2;P2;SDS_P1;SDS_P2;PMS_P1;PMS_P2;Temp;Humidity;BMP_temperature;BMP_pressure;BME280_temperature;BME280_humidity;BME280_pressure;Samples;Min_cycle;Max_cycle;Signal;HPM_P1;HPM_P2
2022/04/21 00:00:39;;;;;;;1.92;0.60;;;;;;;;;;4936062;29;20044;-66
2022/04/21 00:03:06;;;;;;;0.95;0.80;;;;;;;;;;4936362;29;20514;-64
2022/04/21 00:05:32;;;;;;;0.75;0.60;;;;;;;;;;4935408;29;20051;-70
2022/04/21 00:07:59;;;;;;;1.15;0.70;;;;;;;;;;4936879;29;20465;-66
2022/04/21 00:10:26;;;;;;;2.50;0.80;;;;;;;;;;4936250;29;20086;-66
2022/04/21 00:12:54;;;;;;;0.40;0.40;;;;;;;;;;4936401;29;20081;-68
2022/04/21 00:15:20;;;;;;;1.27;0.85;;;;;;;;;;4936192;29;20078;-68
2022/04/21 00:17:46;;;;;;;1.23;0.80;;;;;;;;;;4935369;29;20051;-66
2022/04/21 00:20:13;;;;;;;0.88;0.70;;;;;;;;;;4937021;29;20060;-65
2022/04/21 00:25:26;;;;;;;0.88;0.65;;;;;;;;;;4937408;29;20059;-66
2022/04/21 00:27:54;;;;;;;1.00;0.65;;;;;;;;;;4936904;29;20082;-66
2022/04/21 00:30:19;;;;;;;2.78;0.63;;;;;;;;;;4935598;29;20048;-64
2022/04/21 00:32:46;;;;;;;1.27;0.80;;;;;;;;;;4935093;29;20520;-65
2022/04/21 00:35:13;;;;;;;1.33;0.88;;;;;;;;;;4934223;29;20051;-65
2022/04/21 00:37:58;;;;;;;0.80;0.60;;;;;;;;;;4934588;29;20102;-66
2022/04/21 00:40:29;;;;;;;3.05;0.60;;;;;;;;;;4934938;29;20501;-64
2022/04/21 00:42:56;;;;;;;2.88;0.60;;;;;;;;;;4934659;29;20099;-66
2022/04/21 00:45:22;;;;;;;1.90;0.70;;;;;;;;;;4933730;29;20457;-66
2022/04/21 00:47:49;;;;;;;0.50;0.50;;;;;;;;;;4933827;29;20047;-65
2022/04/21 00:50:19;;;;;;;1.38;0.63;;;;;;;;;;4933186;29;20060;-66
2022/04/21 00:52:46;;;;;;;0.60;0.40;;;;;;;;;;4933971;29;20053;-68
2022/04/21 00:55:13;;;;;;;1.00;0.63;;;;;;;;;;4933045;29;20537;-65
2022/04/21 00:57:41;;;;;;;3.22;0.73;;;;;;;;;;4932780;29;20094;-66
2022/04/21 01:00:07;;;;;;;2.17;0.85;;;;;;;;;;4931439;29;20047;-66
2022/04/21 01:05:35;;;;;;;0.73;0.70;;;;;;;;;;4891208;29;20158;-66
2022/04/21 01:08:03;;;;;;;0.50;0.43;;;;;;;;;;4891931;29;20079;-66
2022/04/21 01:10:31;;;;;;;1.35;0.70;;;;;;;;;;4891079;29;20100;-64
2022/04/21 01:13:04;;;;;;;0.95;0.52;;;;;;;;;;4893038;29;20081;-68
2022/04/21 01:15:30;;;;;;;1.45;0.63;;;;;;;;;;4893420;29;20081;-65
2022/04/21 01:17:56;;;;;;;0.85;0.50;;;;;;;;;;4895423;29;20079;-66
2022/04/21 01:20:23;;;;;;;0.90;0.60;;;;;;;;;;4893202;29;20529;-64
2022/04/21 01:22:50;;;;;;;0.63;0.60;;;;;;;;;;4892827;29;21175;-64
2022/04/21 01:25:16;;;;;;;0.88;0.60;;;;;;;;;;4892648;29;20052;-64
2022/04/21 01:27:43;;;;;;;0.60;0.60;;;;;;;;;;4894620;29;20573;-62
2022/04/21 01:30:11;;;;;;;0.98;0.57;;;;;;;;;;4892777;29;20053;-64
2022/04/21 01:32:40;;;;;;;0.40;0.40;;;;;;;;;;4894556;29;20092;-65
2022/04/21 01:35:07;;;;;;;0.50;0.50;;;;;;;;;;4893191;29;20430;-64
2022/04/21 01:43:03;;;;;;;0.60;0.50;;;;;;;;;;4933601;29;19957;-65
2022/04/21 01:45:29;;;;;;;0.57;0.52;;;;;;;;;;4934860;29;20047;-66
2022/04/21 01:47:56;;;;;;;0.80;0.63;;;;;;;;;;4933669;29;20485;-65
2022/04/21 01:50:24;;;;;;;0.60;0.52;;;;;;;;;;4933031;29;20525;-65
2022/04/21 01:52:49;;;;;;;1.17;0.50;;;;;;;;;;4932185;29;20127;-66
2022/04/21 01:55:16;;;;;;;0.50;0.50;;;;;;;;;;4931253;29;20059;-64
2022/04/21 01:57:42;;;;;;;0.85;0.60;;;;;;;;;;4930268;29;20051;-65
2022/04/21 02:00:09;;;;;;;1.33;0.50;;;;;;;;;;4932824;29;20078;-64
2022/04/21 02:02:35;;;;;;;0.55;0.55;;;;;;;;;;4934801;29;20111;-64
2022/04/21 02:05:02;;;;;;;1.10;0.50;;;;;;;;;;4935803;29;20047;-64
2022/04/21 02:07:28;;;;;;;0.30;0.30;;;;;;;;;;4935898;29;20055;-65
2022/04/21 02:09:55;;;;;;;0.38;0.38;;;;;;;;;;4935993;29;20047;-67
2022/04/21 02:12:27;;;;;;;0.40;0.40;;;;;;;;;;4939491;29;20063;-65
2022/04/21 02:14:53;;;;;;;0.50;0.40;;;;;;;;;;4940770;29;20060;-67
2022/04/21 02:17:19;;;;;;;0.20;0.20;;;;;;;;;;4938653;29;20494;-65
2022/04/21 02:19:46;;;;;;;0.50;0.50;;;;;;;;;;4936864;29;20569;-63
2022/04/21 02:22:12;;;;;;;0.40;0.40;;;;;;;;;;4935254;29;20051;-64
2022/04/21 02:24:39;;;;;;;1.85;0.40;;;;;;;;;;4936708;29;20059;-65
2022/04/21 02:27:05;;;;;;;0.30;0.30;;;;;;;;;;4936004;29;20047;-64
2022/04/21 02:29:31;;;;;;;1.20;0.43;;;;;;;;;;4935078;29;20043;-65
2022/04/21 02:31:56;;;;;;;0.25;0.25;;;;;;;;;;4933855;29;20044;-63
2022/04/21 02:34:23;;;;;;;0.40;0.40;;;;;;;;;;4936786;29;20083;-66
2022/04/21 02:36:48;;;;;;;0.63;0.40;;;;;;;;;;4934644;29;20082;-66
2022/04/21 02:39:14;;;;;;;0.95;0.50;;;;;;;;;;4933518;29;20039;-65
2022/04/21 02:41:40;;;;;;;1.05;0.50;;;;;;;;;;4932883;29;20395;-63
2022/04/21 02:44:06;;;;;;;0.60;0.50;;;;;;;;;;4933224;29;20055;-65
2022/04/21 02:46:34;;;;;;;0.55;0.30;;;;;;;;;;4932565;29;20051;-65
2022/04/21 02:49:01;;;;;;;0.30;0.28;;;;;;;;;;4933652;29;20098;-66
2022/04/21 02:51:31;;;;;;;0.40;0.40;;;;;;;;;;4936852;29;20052;-63
2022/04/21 02:59:28;;;;;;;0.30;0.30;;;;;;;;;;4934974;29;20138;-65
2022/04/21 03:01:54;;;;;;;0.30;0.30;;;;;;;;;;4934578;29;20132;-64
2022/04/21 03:04:21;;;;;;;0.52;0.38;;;;;;;;;;4935383;29;20050;-64
2022/04/21 03:06:47;;;;;;;2.05;0.30;;;;;;;;;;4935444;29;20094;-64
2022/04/21 03:09:13;;;;;;;0.60;0.43;;;;;;;;;;4936147;29;20056;-63
2022/04/21 03:11:39;;;;;;;1.30;0.63;;;;;;;;;;4934396;29;20260;-63
2022/04/21 03:14:05;;;;;;;0.68;0.60;;;;;;;;;;4935407;29;20048;-67
2022/04/21 03:16:31;;;;;;;1.33;0.60;;;;;;;;;;4934495;29;20516;-64
2022/04/21 03:18:57;;;;;;;1.75;1.15;;;;;;;;;;4935093;29;20131;-62
2022/04/21 03:24:20;;;;;;;3.88;0.95;;;;;;;;;;4934116;29;20077;-64
2022/04/21 03:26:51;;;;;;;1.00;0.88;;;;;;;;;;4933637;29;20500;-66
2022/04/21 03:29:18;;;;;;;2.35;0.88;;;;;;;;;;4934425;29;20059;-65
2022/04/21 03:31:44;;;;;;;0.88;0.70;;;;;;;;;;4934083;29;20060;-65
2022/04/21 03:34:12;;;;;;;1.83;1.00;;;;;;;;;;4934213;29;20492;-66
2022/04/21 03:36:49;;;;;;;1.05;0.68;;;;;;;;;;4933675;29;20082;-64
2022/04/21 03:39:17;;;;;;;1.33;0.88;;;;;;;;;;4933739;29;20079;-65
2022/04/21 03:41:43;;;;;;;2.85;0.60;;;;;;;;;;4933591;29;20507;-67
2022/04/21 03:44:11;;;;;;;2.08;0.63;;;;;;;;;;4934276;29;20048;-65
2022/04/21 03:46:40;;;;;;;0.77;0.60;;;;;;;;;;4933490;29;20059;-64
2022/04/21 03:49:06;;;;;;;0.50;0.50;;;;;;;;;;4933031;29;20106;-65
2022/04/21 03:51:33;;;;;;;0.55;0.50;;;;;;;;;;4933518;29;20387;-64
2022/04/21 03:53:59;;;;;;;0.50;0.50;;;;;;;;;;4934066;29;20052;-66
2022/04/21 03:56:26;;;;;;;0.50;0.50;;;;;;;;;;4932974;29;20538;-64
2022/04/21 03:58:52;;;;;;;0.65;0.50;;;;;;;;;;4933530;29;20433;-64
2022/04/21 04:01:19;;;;;;;0.63;0.60;;;;;;;;;;4933308;29;20047;-66
2022/04/21 04:03:45;;;;;;;1.45;0.47;;;;;;;;;;4932986;29;20160;-66
2022/04/21 04:11:40;;;;;;;;;;;;;;;;;;4934040;29;20059;-65
2022/04/21 04:14:06;;;;;;;0.50;0.50;;;;;;;;;;4934272;29;20017;-65
2022/04/21 04:16:36;;;;;;;2.38;0.70;;;;;;;;;;4933008;29;20386;-65
2022/04/21 04:19:05;;;;;;;2.88;0.50;;;;;;;;;;4933211;29;20130;-65
2022/04/21 04:21:31;;;;;;;1.17;0.70;;;;;;;;;;4932833;29;20052;-64
2022/04/21 04:23:58;;;;;;;1.10;0.70;;;;;;;;;;4933370;29;20506;-64
2022/04/21 04:26:24;;;;;;;1.83;0.75;;;;;;;;;;4931805;29;20051;-65
2022/04/21 04:28:50;;;;;;;2.97;0.80;;;;;;;;;;4933724;29;20051;-67
2022/04/21 04:31:16;;;;;;;3.22;0.68;;;;;;;;;;4933352;29;20543;-67
2022/04/21 04:33:42;;;;;;;1.65;0.90;;;;;;;;;;4933427;29;20099;-65
2022/04/21 04:36:10;;;;;;;0.75;0.70;;;;;;;;;;4932695;29;20347;-64
2022/04/21 04:38:40;;;;;;;0.90;0.60;;;;;;;;;;4932570;29;20498;-65
2022/04/21 04:43:51;;;;;;;4.68;0.80;;;;;;;;;;4932804;29;21385;-66
2022/04/21 04:46:35;;;;;;;2.67;1.10;;;;;;;;;;4932476;29;20098;-64
2022/04/21 04:49:04;;;;;;;1.60;0.82;;;;;;;;;;4933215;29;20059;-66
2022/04/21 04:51:31;;;;;;;3.47;0.75;;;;;;;;;;4932598;29;20043;-64
2022/04/21 04:53:57;;;;;;;3.70;0.93;;;;;;;;;;4933649;29;20047;-67
2022/04/21 04:56:24;;;;;;;1.67;0.90;;;;;;;;;;4932523;29;20087;-65
2022/04/21 04:58:51;;;;;;;6.75;1.02;;;;;;;;;;4933158;29;20540;-63
2022/04/21 05:01:26;;;;;;;4.90;0.82;;;;;;;;;;4932425;29;20067;-64
2022/04/21 05:04:12;;;;;;;2.95;0.88;;;;;;;;;;4931518;29;20058;-63
2022/04/21 05:06:39;;;;;;;2.67;0.75;;;;;;;;;;4932502;29;20494;-66
2022/04/21 05:09:07;;;;;;;1.63;0.80;;;;;;;;;;4933099;29;20450;-65
2022/04/21 05:11:33;;;;;;;2.88;0.70;;;;;;;;;;4932856;29;20071;-66
2022/04/21 05:14:00;;;;;;;1.70;1.05;;;;;;;;;;4933142;29;20047;-65
2022/04/21 05:16:27;;;;;;;1.63;1.02;;;;;;;;;;4932341;29;20048;-66
2022/04/21 05:18:53;;;;;;;2.20;1.17;;;;;;;;;;4933295;29;20059;-65
2022/04/21 05:21:20;;;;;;;5.72;1.02;;;;;;;;;;4933231;29;20047;-66
2022/04/21 05:23:47;;;;;;;2.17;0.90;;;;;;;;;;4933337;29;20079;-64
2022/04/21 05:26:15;;;;;;;1.65;0.90;;;;;;;;;;4933421;29;20482;-64
2022/04/21 05:28:45;;;;;;;3.55;1.10;;;;;;;;;;4933400;29;20134;-65
2022/04/21 05:31:12;;;;;;;4.53;0.88;;;;;;;;;;4932483;29;20052;-65
2022/04/21 05:33:38;;;;;;;3.45;1.00;;;;;;;;;;4934480;29;20047;-65
2022/04/21 05:36:05;;;;;;;2.95;1.27;;;;;;;;;;4935550;29;20052;-64
2022/04/21 05:38:32;;;;;;;3.10;1.05;;;;;;;;;;4938682;29;20115;-66
2022/04/21 05:40:58;;;;;;;1.63;0.70;;;;;;;;;;4937433;29;20489;-67
2022/04/21 05:43:30;;;;;;;3.55;1.23;;;;;;;;;;4936573;29;20142;-67
2022/04/21 05:45:56;;;;;;;3.85;1.17;;;;;;;;;;4936415;29;20523;-66
2022/04/21 05:48:23;;;;;;;2.92;1.00;;;;;;;;;;4936216;29;20406;-64
2022/04/21 05:50:51;;;;;;;3.72;1.45;;;;;;;;;;4935936;29;20048;-64
2022/04/21 05:53:24;;;;;;;5.38;1.55;;;;;;;;;;4935971;29;20059;-65
2022/04/21 05:55:51;;;;;;;3.83;1.55;;;;;;;;;;4936092;29;20055;-65
2022/04/21 05:58:18;;;;;;;7.22;1.40;;;;;;;;;;4935810;29;20402;-64
2022/04/21 06:00:44;;;;;;;3.13;0.90;;;;;;;;;;4935325;29;20131;-65
2022/04/21 06:03:13;;;;;;;5.57;1.00;;;;;;;;;;4936296;29;20719;-64
2022/04/21 06:05:39;;;;;;;4.13;1.33;;;;;;;;;;4937234;29;20048;-64
2022/04/21 06:08:06;;;;;;;3.45;1.00;;;;;;;;;;4936992;29;20055;-65
2022/04/21 06:10:35;;;;;;;2.63;1.00;;;;;;;;;;4936095;29;20111;-66
2022/04/21 06:13:02;;;;;;;6.72;1.90;;;;;;;;;;4935949;29;20075;-66
2022/04/21 06:15:32;;;;;;;4.57;1.50;;;;;;;;;;4936260;29;20568;-69
2022/04/21 06:17:59;;;;;;;3.40;1.83;;;;;;;;;;4936303;29;20051;-65
2022/04/21 06:20:27;;;;;;;9.98;1.52;;;;;;;;;;4934641;29;20568;-65
2022/04/21 06:22:54;;;;;;;2.10;1.35;;;;;;;;;;4935592;29;20046;-70
2022/04/21 06:25:21;;;;;;;5.18;1.70;;;;;;;;;;4935043;29;20051;-64
2022/04/21 06:27:49;;;;;;;4.65;1.58;;;;;;;;;;4935764;29;20074;-65
2022/04/21 06:30:16;;;;;;;7.93;1.52;;;;;;;;;;4935602;29;20071;-63
2022/04/21 06:32:43;;;;;;;7.95;2.22;;;;;;;;;;4935075;29;20078;-69
2022/04/21 06:35:09;;;;;;;6.00;1.70;;;;;;;;;;4935276;29;20107;-68
2022/04/21 06:37:35;;;;;;;5.90;1.80;;;;;;;;;;4935896;29;20345;-64
2022/04/21 06:40:02;;;;;;;8.57;1.60;;;;;;;;;;4936066;29;20497;-63
2022/04/21 06:42:28;;;;;;;4.40;1.33;;;;;;;;;;4934616;29;20469;-65
2022/04/21 06:50:23;;;;;;;5.97;1.60;;;;;;;;;;4934397;29;20058;-67
2022/04/21 06:52:50;;;;;;;7.60;1.90;;;;;;;;;;4933513;29;20421;-68
2022/04/21 06:55:16;;;;;;;5.55;2.22;;;;;;;;;;4934902;29;20203;-66
2022/04/21 06:57:42;;;;;;;6.85;1.40;;;;;;;;;;4935404;29;20062;-72
2022/04/21 07:00:09;;;;;;;7.22;1.58;;;;;;;;;;4935268;29;20051;-68
2022/04/21 07:02:38;;;;;;;11.80;1.60;;;;;;;;;;4934228;29;20063;-67
2022/04/21 07:05:06;;;;;;;4.60;1.52;;;;;;;;;;4932937;29;20064;-66
2022/04/21 07:07:32;;;;;;;5.50;1.90;;;;;;;;;;4935111;29;20039;-66
2022/04/21 07:10:00;;;;;;;6.13;1.33;;;;;;;;;;4932559;29;20048;-65
2022/04/21 07:12:27;;;;;;;4.25;1.88;;;;;;;;;;4934323;29;20083;-65
2022/04/21 07:14:55;;;;;;;3.58;1.38;;;;;;;;;;4934468;29;20044;-69
2022/04/21 07:17:21;;;;;;;5.75;1.58;;;;;;;;;;4934268;29;20067;-66
2022/04/21 07:19:48;;;;;;;2.63;1.42;;;;;;;;;;4934396;29;20071;-67
2022/04/21 07:22:14;;;;;;;1.75;1.38;;;;;;;;;;4934105;29;20188;-68
2022/04/21 07:24:41;;;;;;;8.82;1.50;;;;;;;;;;4935482;29;20436;-68
2022/04/21 07:27:07;;;;;;;5.53;1.60;;;;;;;;;;4948956;29;20082;-69
2022/04/21 07:29:34;;;;;;;5.68;1.70;;;;;;;;;;4934429;29;20067;-70
2022/04/21 07:32:00;;;;;;;3.97;2.00;;;;;;;;;;4934605;29;20128;-69
2022/04/21 07:34:26;;;;;;;7.43;1.73;;;;;;;;;;4934054;29;20572;-70
2022/04/21 07:36:52;;;;;;;6.40;1.75;;;;;;;;;;4935636;29;20114;-69
2022/04/21 07:39:18;;;;;;;2.30;1.40;;;;;;;;;;4934734;29;20083;-69
2022/04/21 07:41:46;;;;;;;6.47;1.48;;;;;;;;;;4936131;29;20046;-68
2022/04/21 07:44:12;;;;;;;4.50;1.30;;;;;;;;;;4935345;29;20051;-68
2022/04/21 07:46:38;;;;;;;2.83;1.10;;;;;;;;;;4934102;29;20126;-70
2022/04/21 07:51:49;;;;;;;2.80;1.10;;;;;;;;;;4933891;29;20055;-68
2022/04/21 07:54:14;;;;;;;4.72;1.27;;;;;;;;;;4934632;29;20048;-70
2022/04/21 07:56:40;;;;;;;3.72;1.40;;;;;;;;;;4933258;29;20048;-69
2022/04/21 07:59:06;;;;;;;1.45;0.70;;;;;;;;;;4935061;29;20051;-71
2022/04/21 08:01:32;;;;;;;0.75;0.63;;;;;;;;;;4934418;29;20051;-72
2022/04/21 08:04:02;;;;;;;1.05;0.70;;;;;;;;;;4934907;29;20048;-69
2022/04/21 08:06:28;;;;;;;1.52;0.88;;;;;;;;;;4934083;29;20090;-69
2022/04/21 08:08:55;;;;;;;1.77;0.85;;;;;;;;;;4934089;29;20056;-69
2022/04/21 08:11:21;;;;;;;1.98;0.80;;;;;;;;;;4934054;29;20515;-70
2022/04/21 08:13:48;;;;;;;0.75;0.60;;;;;;;;;;4935017;29;20123;-68
2022/04/21 08:16:14;;;;;;;0.85;0.73;;;;;;;;;;4935179;29;20051;-68
2022/04/21 08:18:39;;;;;;;0.98;0.70;;;;;;;;;;4931914;29;20139;-70
2022/04/21 08:21:06;;;;;;;3.88;0.90;;;;;;;;;;4933497;29;20292;-70
2022/04/21 08:23:36;;;;;;;1.15;0.50;;;;;;;;;;4932094;29;20067;-68
2022/04/21 08:32:33;;;;;;;0.57;0.55;;;;;;;;;;4934683;29;20048;-69
2022/04/21 08:34:23;;;;;;;1.50;0.70;;;;;;;;;;4934101;29;20048;-69
2022/04/21 08:36:49;;;;;;;3.30;1.00;;;;;;;;;;4931200;29;20525;-70
2022/04/21 08:39:15;;;;;;;0.80;0.60;;;;;;;;;;4932491;29;20051;-69
2022/04/21 08:41:48;;;;;;;0.80;0.70;;;;;;;;;;4935933;29;20059;-72
2022/04/21 08:44:19;;;;;;;1.08;0.63;;;;;;;;;;4933606;29;20122;-70
2022/04/21 08:46:47;;;;;;;2.00;1.10;;;;;;;;;;4932809;29;20060;-71
2022/04/21 08:49:17;;;;;;;1.90;0.55;;;;;;;;;;4930367;29;20047;-69
2022/04/21 08:51:43;;;;;;;1.40;0.50;;;;;;;;;;4930586;29;20138;-70
2022/04/21 08:54:09;;;;;;;1.27;0.55;;;;;;;;;;4931023;29;20107;-71
2022/04/21 08:56:35;;;;;;;0.75;0.63;;;;;;;;;;4929519;29;20462;-68
2022/04/21 08:59:01;;;;;;;1.00;0.65;;;;;;;;;;4931904;29;20070;-69
2022/04/21 09:01:27;;;;;;;2.08;0.63;;;;;;;;;;4931938;29;20074;-71
2022/04/21 09:03:53;;;;;;;1.75;0.77;;;;;;;;;;4932043;29;20043;-73
2022/04/21 09:06:22;;;;;;;2.05;0.52;;;;;;;;;;4930790;29;20059;-72
2022/04/21 09:09:13;;;;;;;1.27;0.50;;;;;;;;;;4931289;29;20093;-73
2022/04/21 09:11:43;;;;;;;2.58;0.70;;;;;;;;;;4931154;29;20078;-73
2022/04/21 09:14:15;;;;;;;0.88;0.60;;;;;;;;;;4929740;29;20047;-69
2022/04/21 09:16:41;;;;;;;0.70;0.70;;;;;;;;;;4931904;29;20159;-68
2022/04/21 09:19:07;;;;;;;1.50;0.60;;;;;;;;;;4931914;29;20222;-73
2022/04/21 09:21:38;;;;;;;0.40;0.40;;;;;;;;;;4932122;29;20048;-67
2022/04/21 09:24:23;;;;;;;1.92;0.70;;;;;;;;;;4932072;29;20139;-74
2022/04/21 09:26:50;;;;;;;1.33;0.80;;;;;;;;;;4931379;29;20055;-73
2022/04/21 09:29:24;;;;;;;1.05;0.70;;;;;;;;;;4953067;28;20424;-70
2022/04/21 09:32:02;;;;;;;1.50;0.80;;;;;;;;;;4949979;28;20497;-70
2022/04/21 09:34:29;;;;;;;2.80;0.60;;;;;;;;;;4950536;28;20146;-71
2022/04/21 09:36:59;;;;;;;1.50;0.45;;;;;;;;;;4964914;28;20102;-70
2022/04/21 09:39:27;;;;;;;1.38;0.70;;;;;;;;;;4948788;29;20066;-71
2022/04/21 09:41:56;;;;;;;2.15;0.40;;;;;;;;;;4948018;29;20502;-71
2022/04/21 09:47:19;;;;;;;0.88;0.70;;;;;;;;;;4950318;29;20067;-71
2022/04/21 09:49:46;;;;;;;7.32;0.55;;;;;;;;;;4950559;28;20047;-71
2022/04/21 09:52:12;;;;;;;1.10;0.73;;;;;;;;;;4949533;28;20051;-70
2022/04/21 09:54:41;;;;;;;2.97;0.90;;;;;;;;;;4953205;28;20555;-77
2022/04/21 09:57:07;;;;;;;1.17;0.80;;;;;;;;;;4954342;28;20117;-72
2022/04/21 09:59:35;;;;;;;1.27;0.60;;;;;;;;;;4950545;28;20063;-69
2022/04/21 10:02:04;;;;;;;2.33;1.38;;;;;;;;;;4934750;29;20577;-68
2022/04/21 10:04:30;;;;;;;1.45;0.80;;;;;;;;;;4937710;29;20494;-79
2022/04/21 10:06:57;;;;;;;2.42;0.80;;;;;;;;;;4943180;29;20493;-80
2022/04/21 10:09:23;;;;;;;3.63;0.80;;;;;;;;;;4935908;29;20072;-73
2022/04/21 10:11:52;;;;;;;1.35;0.60;;;;;;;;;;4932725;29;20056;-69
2022/04/21 10:14:18;;;;;;;1.90;0.80;;;;;;;;;;4934388;29;20056;-73
2022/04/21 10:16:44;;;;;;;0.90;0.50;;;;;;;;;;4935797;29;20059;-74
2022/04/21 10:19:14;;;;;;;0.70;0.60;;;;;;;;;;4934564;29;20047;-70
2022/04/21 10:21:48;;;;;;;4.32;1.10;;;;;;;;;;4934543;29;20055;-71
2022/04/21 10:24:21;;;;;;;;;;;;;;;;;;4939262;29;20083;-78
2022/04/21 10:26:47;;;;;;;0.90;0.52;;;;;;;;;;4938161;29;19923;-75
2022/04/21 10:29:13;;;;;;;4.85;0.70;;;;;;;;;;4938696;29;20621;-73
2022/04/21 10:32:01;;;;;;;6.63;1.00;;;;;;;;;;4937430;29;20068;-73
2022/04/21 10:34:42;;;;;;;0.70;0.60;;;;;;;;;;4940481;29;20169;-74
2022/04/21 10:37:13;;;;;;;3.85;0.75;;;;;;;;;;4936637;29;20632;-76
2022/04/21 10:40:00;;;;;;;7.93;0.65;;;;;;;;;;4935753;29;20044;-71
2022/04/21 10:42:26;;;;;;;0.73;0.50;;;;;;;;;;4936598;29;20083;-69
2022/04/21 10:44:53;;;;;;;1.48;0.80;;;;;;;;;;4937186;29;20102;-75
2022/04/21 10:47:38;;;;;;;1.85;0.70;;;;;;;;;;4936926;29;20052;-72
2022/04/21 10:50:19;;;;;;;2.13;0.47;;;;;;;;;;4936662;29;20127;-72
2022/04/21 10:58:37;;;;;;;1.13;0.30;;;;;;;;;;4934998;29;20078;-73
2022/04/21 11:01:28;;;;;;;0.95;0.60;;;;;;;;;;4936248;29;20572;-74
2022/04/21 11:04:21;;;;;;;1.13;0.40;;;;;;;;;;4936867;29;20469;-71
2022/04/21 11:06:51;;;;;;;1.80;0.90;;;;;;;;;;4921171;29;20307;-75
2022/04/21 11:09:50;;;;;;;3.97;1.10;;;;;;;;;;4935473;29;20056;-69
2022/04/21 11:12:37;;;;;;;2.85;1.52;;;;;;;;;;4934693;29;20082;-71
2022/04/21 11:15:31;;;;;;;3.47;1.35;;;;;;;;;;4935878;29;20052;-71
2022/04/21 11:18:02;;;;;;;;;;;;;;;;;;4932672;29;20055;-70
2022/04/21 11:20:28;;;;;;;3.15;1.08;;;;;;;;;;4933450;29;20009;-73
2022/04/21 11:22:54;;;;;;;6.00;0.93;;;;;;;;;;4932353;29;20071;-69
2022/04/21 11:25:20;;;;;;;5.93;1.30;;;;;;;;;;4932309;29;20128;-71
2022/04/21 11:27:47;;;;;;;6.78;1.40;;;;;;;;;;4932849;29;20126;-72
2022/04/21 11:30:14;;;;;;;3.97;1.00;;;;;;;;;;4932740;29;20039;-73
2022/04/21 11:32:51;;;;;;;4.47;0.70;;;;;;;;;;4934713;29;20142;-73
2022/04/21 11:35:20;;;;;;;2.30;0.85;;;;;;;;;;4934420;29;20063;-70
2022/04/21 11:37:56;;;;;;;2.42;0.80;;;;;;;;;;4933990;29;20134;-69
2022/04/21 11:40:34;;;;;;;5.50;1.63;;;;;;;;;;4934167;29;20405;-71
2022/04/21 11:43:11;;;;;;;3.50;1.27;;;;;;;;;;4934325;29;20532;-71
2022/04/21 11:45:40;;;;;;;3.15;1.30;;;;;;;;;;4934200;29;20044;-72
2022/04/21 11:48:14;;;;;;;2.75;1.17;;;;;;;;;;4934868;29;20122;-71
2022/04/21 11:50:45;;;;;;;3.13;1.20;;;;;;;;;;4934093;29;20290;-71
2022/04/21 11:53:19;;;;;;;2.95;1.40;;;;;;;;;;4934262;29;20066;-71
2022/04/21 11:55:46;;;;;;;2.20;1.08;;;;;;;;;;4933954;29;20522;-72
2022/04/21 11:58:12;;;;;;;3.13;1.30;;;;;;;;;;4934369;29;20447;-72
2022/04/21 12:06:30;;;;;;;2.90;1.20;;;;;;;;;;4934794;29;20055;-74
2022/04/21 12:08:57;;;;;;;5.07;1.10;;;;;;;;;;4934846;29;20052;-72
2022/04/21 12:11:23;;;;;;;1.65;0.90;;;;;;;;;;4933455;29;20490;-71
2022/04/21 12:13:50;;;;;;;3.95;1.10;;;;;;;;;;4934073;29;20074;-70
2022/04/21 12:17:01;;;;;;;4.00;1.20;;;;;;;;;;4933788;29;20091;-73
2022/04/21 12:19:38;;;;;;;7.80;1.30;;;;;;;;;;4927224;29;20055;-74
2022/04/21 12:22:11;;;;;;;7.38;2.55;;;;;;;;;;4917301;29;20146;-72
2022/04/21 12:24:38;;;;;;;3.53;1.17;;;;;;;;;;4929823;29;20063;-73
2022/04/21 12:27:12;;;;;;;4.20;1.15;;;;;;;;;;4943671;29;20047;-72
2022/04/21 12:29:51;;;;;;;7.07;1.50;;;;;;;;;;4934157;28;20134;-74
2022/04/21 12:32:21;;;;;;;2.65;1.20;;;;;;;;;;4933959;29;20064;-72
2022/04/21 12:34:48;;;;;;;7.53;3.55;;;;;;;;;;4933586;29;20057;-74
2022/04/21 12:37:14;;;;;;;7.70;1.70;;;;;;;;;;4933429;29;20548;-73
2022/04/21 12:39:40;;;;;;;7.30;2.55;;;;;;;;;;4935833;29;20056;-73
2022/04/21 12:42:06;;;;;;;3.13;1.60;;;;;;;;;;4934190;29;20086;-71
2022/04/21 12:44:32;;;;;;;9.60;3.90;;;;;;;;;;4933073;29;20056;-72
2022/04/21 12:47:05;;;;;;;7.75;3.25;;;;;;;;;;4933541;29;20047;-75
2022/04/21 12:49:50;;;;;;;6.35;2.65;;;;;;;;;;4933754;29;20099;-72
2022/04/21 12:52:39;;;;;;;13.43;6.00;;;;;;;;;;4933272;29;20506;-73
2022/04/21 12:55:11;;;;;;;1.20;0.75;;;;;;;;;;4933504;29;20043;-72
2022/04/21 12:57:39;;;;;;;3.80;1.10;;;;;;;;;;4933629;29;20074;-71
2022/04/21 13:00:10;;;;;;;5.82;1.35;;;;;;;;;;4933088;29;20048;-71
2022/04/21 13:02:36;;;;;;;3.30;1.50;;;;;;;;;;4933118;29;20099;-71
2022/04/21 13:05:03;;;;;;;4.15;1.88;;;;;;;;;;4932396;29;20106;-69
2022/04/21 13:07:29;;;;;;;4.28;1.30;;;;;;;;;;4933622;29;20383;-70
2022/04/21 13:09:55;;;;;;;1.55;0.80;;;;;;;;;;4933416;29;20055;-71
2022/04/21 13:12:21;;;;;;;1.88;0.70;;;;;;;;;;4931585;29;20529;-72
2022/04/21 13:14:47;;;;;;;1.35;0.90;;;;;;;;;;4930335;29;20052;-68
2022/04/21 13:17:13;;;;;;;3.30;1.30;;;;;;;;;;4930977;29;20130;-67
2022/04/21 13:19:39;;;;;;;5.20;1.70;;;;;;;;;;4944363;29;20453;-74
2022/04/21 13:22:05;;;;;;;13.52;2.33;;;;;;;;;;4933895;29;20051;-76
2022/04/21 13:24:32;;;;;;;5.97;2.08;;;;;;;;;;4934066;29;20064;-67
2022/04/21 13:27:00;;;;;;;3.20;1.23;;;;;;;;;;4931147;29;20102;-68
2022/04/21 13:29:29;;;;;;;9.85;1.10;;;;;;;;;;4945507;29;20520;-67
2022/04/21 13:34:39;;;;;;;4.85;1.52;;;;;;;;;;4932863;29;20098;-72
2022/04/21 13:37:05;;;;;;;8.70;2.72;;;;;;;;;;4932140;29;20199;-71
2022/04/21 13:39:34;;;;;;;3.67;1.30;;;;;;;;;;4934428;29;20611;-76
2022/04/21 13:42:01;;;;;;;3.60;1.02;;;;;;;;;;4934113;29;20060;-76
2022/04/21 13:44:27;;;;;;;28.00;2.40;;;;;;;;;;4932616;29;20157;-70
2022/04/21 13:46:55;;;;;;;6.65;2.65;;;;;;;;;;4931178;29;20058;-69
2022/04/21 13:49:22;;;;;;;4.35;0.95;;;;;;;;;;4933309;29;20071;-78
2022/04/21 13:51:49;;;;;;;12.05;1.45;;;;;;;;;;4934828;29;20062;-72
2022/04/21 13:54:15;;;;;;;3.80;1.40;;;;;;;;;;4933404;29;20394;-76
2022/04/21 13:56:42;;;;;;;5.38;1.13;;;;;;;;;;4936015;29;20048;-78
2022/04/21 13:59:11;;;;;;;2.53;1.23;;;;;;;;;;4937364;29;20083;-78
2022/04/21 14:01:37;;;;;;;4.82;1.75;;;;;;;;;;4936170;29;20079;-77
2022/04/21 14:04:03;;;;;;;4.00;1.45;;;;;;;;;;4938194;29;20632;-80
2022/04/21 14:06:29;;;;;;;3.40;1.85;;;;;;;;;;4945469;29;20111;-79
2022/04/21 14:08:55;;;;;;;2.10;0.82;;;;;;;;;;4940846;29;20497;-80
2022/04/21 14:11:22;;;;;;;3.45;0.80;;;;;;;;;;4937710;29;20142;-77
2022/04/21 14:13:48;;;;;;;2.55;0.93;;;;;;;;;;4938981;29;20055;-75
2022/04/21 14:16:15;;;;;;;5.32;0.70;;;;;;;;;;4934346;29;20054;-77
2022/04/21 14:18:41;;;;;;;4.50;1.20;;;;;;;;;;4936844;29;20048;-79
2022/04/21 14:21:07;;;;;;;3.38;1.13;;;;;;;;;;4938269;29;20079;-79
2022/04/21 14:23:36;;;;;;;4.88;1.40;;;;;;;;;;4949937;29;20059;-73
2022/04/21 14:26:11;;;;;;;2.90;1.20;;;;;;;;;;4956364;28;20110;-72
2022/04/21 14:28:40;;;;;;;1.65;1.00;;;;;;;;;;4957430;28;20158;-76
2022/04/21 14:31:08;;;;;;;2.15;1.00;;;;;;;;;;4956196;28;20047;-76
2022/04/21 14:33:35;;;;;;;3.00;1.10;;;;;;;;;;4953458;28;20493;-76
2022/04/21 14:36:05;;;;;;;4.20;1.38;;;;;;;;;;4951964;28;20083;-76
2022/04/21 14:44:04;;;;;;;3.22;0.88;;;;;;;;;;4957031;29;20043;-81
2022/04/21 14:46:43;;;;;;;2.08;0.88;;;;;;;;;;4952279;28;20110;-80
2022/04/21 14:49:11;;;;;;;0.40;0.40;;;;;;;;;;4951418;29;20058;-77
2022/04/21 14:51:38;;;;;;;1.70;0.70;;;;;;;;;;4952816;28;20051;-76
2022/04/21 14:54:05;;;;;;;1.92;0.80;;;;;;;;;;4954179;28;20512;-76
2022/04/21 14:56:33;;;;;;;2.67;0.77;;;;;;;;;;4952958;28;20051;-77
2022/04/21 14:59:00;;;;;;;2.88;1.17;;;;;;;;;;4938257;28;20134;-76
2022/04/21 15:01:26;;;;;;;2.95;1.20;;;;;;;;;;4934497;29;20058;-76
2022/04/21 15:03:52;;;;;;;7.38;1.23;;;;;;;;;;4935673;29;20048;-77
2022/04/21 15:06:18;;;;;;;3.13;0.98;;;;;;;;;;4936111;29;20055;-76
2022/04/21 15:08:44;;;;;;;2.30;0.90;;;;;;;;;;4939886;29;20077;-76
2022/04/21 15:11:11;;;;;;;4.63;1.00;;;;;;;;;;4938933;29;20071;-81
2022/04/21 15:13:38;;;;;;;6.55;1.27;;;;;;;;;;4937228;29;20040;-77
2022/04/21 15:16:04;;;;;;;2.65;0.65;;;;;;;;;;4935772;29;20150;-78
2022/04/21 15:18:30;;;;;;;2.83;0.98;;;;;;;;;;4935768;29;20079;-78
2022/04/21 15:20:57;;;;;;;2.33;0.70;;;;;;;;;;4936340;29;20094;-75
2022/04/21 15:23:24;;;;;;;2.08;0.60;;;;;;;;;;4935961;29;20095;-79
2022/04/21 15:25:53;;;;;;;2.80;1.10;;;;;;;;;;4935919;29;20059;-79
2022/04/21 15:28:20;;;;;;;1.35;0.70;;;;;;;;;;4940049;29;20133;-76
2022/04/21 15:30:46;;;;;;;1.55;0.70;;;;;;;;;;4935293;29;20055;-77
2022/04/21 15:33:12;;;;;;;4.18;0.98;;;;;;;;;;4937315;29;20152;-78
2022/04/21 15:35:40;;;;;;;2.08;0.80;;;;;;;;;;4938966;29;20051;-78
2022/04/21 15:38:06;;;;;;;8.38;2.60;;;;;;;;;;4943585;29;20071;-75
2022/04/21 15:40:33;;;;;;;0.85;0.80;;;;;;;;;;4938337;29;20075;-75
2022/04/21 15:42:58;;;;;;;2.25;0.90;;;;;;;;;;4939675;29;20063;-74
2022/04/21 15:45:24;;;;;;;1.90;1.08;;;;;;;;;;4939075;29;20075;-77
2022/04/21 15:47:50;;;;;;;1.30;1.00;;;;;;;;;;4938723;29;20056;-74
2022/04/21 15:50:16;;;;;;;1.50;0.90;;;;;;;;;;4938933;29;20058;-74
2022/04/21 15:52:42;;;;;;;4.15;1.23;;;;;;;;;;4939005;29;20094;-77
2022/04/21 16:00:34;;;;;;;3.40;1.50;;;;;;;;;;4937601;29;20065;-72